createdAt,value
2022-11-09T02:21:32.949Z,62.90
2022-11-09T02:24:01.789Z,61.94
2022-11-09T02:26:41.566Z,57.93
2022-11-09T02:29:14.360Z,55.87
2022-11-09T02:31:49.092Z,56.41
2022-11-09T02:34:20.246Z,57.74
2022-11-09T02:36:49.110Z,59.84
2022-11-09T02:39:24.519Z,60.79
2022-11-09T02:42:03.290Z,64.01
2022-11-09T02:44:41.203Z,64.93
2022-11-09T02:47:09.757Z,61.69
2022-11-09T02:49:38.487Z,57.57
2022-11-09T02:52:06.953Z,56.29
2022-11-09T02:54:35.711Z,57.66
2022-11-09T02:57:06.263Z,59.08
2022-11-09T02:59:35.437Z,60.32
2022-11-09T03:02:05.038Z,60.91
2022-11-09T03:04:33.953Z,63.21
2022-11-09T03:07:03.081Z,64.82
2022-11-09T03:09:31.918Z,62.02
2022-11-09T03:12:21.085Z,58.47
2022-11-09T03:14:49.567Z,56.80
2022-11-09T03:17:18.572Z,58.92
2022-11-09T03:19:47.654Z,59.39
2022-11-09T03:22:16.678Z,60.68
2022-11-09T03:24:47.279Z,63.52
2022-11-09T03:27:16.592Z,64.87
2022-11-09T03:29:44.847Z,64.40
2022-11-09T03:32:13.324Z,57.91
2022-11-09T03:34:42.541Z,56.11
2022-11-09T03:37:11.348Z,56.34
2022-11-09T03:39:40.517Z,58.20
2022-11-09T03:42:09.127Z,59.66
2022-11-09T03:44:38.407Z,60.28
2022-11-09T03:47:06.926Z,64.55
2022-11-09T03:49:35.472Z,66.80
2022-11-09T03:52:04.109Z,63.14
2022-11-09T03:54:32.769Z,56.43
2022-11-09T03:57:01.432Z,54.66
2022-11-09T03:59:29.756Z,55.17
2022-11-09T04:01:58.439Z,56.64
2022-11-09T04:04:27.169Z,58.04
2022-11-09T04:06:55.460Z,59.43
2022-11-09T04:09:24.361Z,60.89
2022-11-09T04:11:53.144Z,64.23
2022-11-09T04:14:21.374Z,64.36
2022-11-09T04:16:49.812Z,61.17
2022-11-09T04:19:18.377Z,56.80
2022-11-09T04:21:46.738Z,55.17
2022-11-09T04:24:15.815Z,56.01
2022-11-09T04:26:44.826Z,57.26
2022-11-09T04:29:13.715Z,58.12
2022-11-09T04:31:42.196Z,59.29
2022-11-09T04:34:10.983Z,63.06
2022-11-09T04:36:39.277Z,65.75
2022-11-09T04:39:07.877Z,63.00
2022-11-09T04:41:36.834Z,57.94
2022-11-09T04:44:05.448Z,55.46
2022-11-09T04:46:33.734Z,55.70
2022-11-09T04:49:02.406Z,57.07
2022-11-09T04:51:31.074Z,58.20
2022-11-09T04:53:59.544Z,59.88
2022-11-09T04:56:28.127Z,63.81
2022-11-09T04:58:56.442Z,65.66
2022-11-09T05:01:25.127Z,62.38
2022-11-09T05:03:54.132Z,57.59
2022-11-09T05:06:34.825Z,55.57
2022-11-09T05:09:07.992Z,56.45
2022-11-09T05:11:36.698Z,58.18
2022-11-09T05:14:07.358Z,60.04
2022-11-09T05:16:36.165Z,63.86
2022-11-09T05:19:04.835Z,64.51
2022-11-09T05:21:33.284Z,62.58
2022-11-09T05:24:03.377Z,57.43
2022-11-09T05:26:35.320Z,55.63
2022-11-09T05:29:07.014Z,56.87
2022-11-09T05:31:36.788Z,58.02
2022-11-09T05:34:06.997Z,59.39
2022-11-09T05:36:35.563Z,63.29
2022-11-09T05:39:04.170Z,65.03
2022-11-09T05:41:32.631Z,62.05
2022-11-09T05:44:01.430Z,57.32
2022-11-09T05:46:31.741Z,55.88
2022-11-09T05:49:00.584Z,57.35
2022-11-09T05:51:29.219Z,58.81
2022-11-09T05:53:57.533Z,60.23
2022-11-09T05:56:25.991Z,65.56
2022-11-09T05:58:54.757Z,64.38
2022-11-09T06:01:23.046Z,61.84
2022-11-09T06:03:54.573Z,57.43
2022-11-09T06:06:23.168Z,55.89
2022-11-09T06:08:51.509Z,56.89
2022-11-09T06:11:24.031Z,58.66
2022-11-09T06:13:53.407Z,59.40
2022-11-09T06:16:22.721Z,64.91
2022-11-09T06:18:51.145Z,65.38
2022-11-09T06:21:20.103Z,62.46
2022-11-09T06:23:49.428Z,57.67
2022-11-09T06:26:17.840Z,55.68
2022-11-09T06:28:46.989Z,56.49
2022-11-09T06:31:17.302Z,58.73
2022-11-09T06:33:45.551Z,60.00
2022-11-09T06:36:14.218Z,64.04
2022-11-09T06:38:42.838Z,63.99
2022-11-09T06:41:11.216Z,59.31
2022-11-09T06:43:39.900Z,56.77
2022-11-09T06:46:10.990Z,57.85
2022-11-09T06:48:39.587Z,59.49
2022-11-09T06:51:08.034Z,63.73
2022-11-09T06:53:38.085Z,65.38
2022-11-09T06:56:07.339Z,62.22
2022-11-09T06:58:36.760Z,56.70
2022-11-09T07:01:13.749Z,54.97
2022-11-09T07:03:42.416Z,56.32
2022-11-09T07:06:13.035Z,57.73
2022-11-09T07:08:42.217Z,59.31
2022-11-09T07:11:13.967Z,63.97
2022-11-09T07:13:42.623Z,65.80
2022-11-09T07:16:12.953Z,61.58
2022-11-09T07:18:41.890Z,57.09
2022-11-09T07:21:14.333Z,55.12
2022-11-09T07:23:44.099Z,56.05
2022-11-09T07:26:12.788Z,57.86
2022-11-09T07:28:41.533Z,58.90
2022-11-09T07:31:10.769Z,63.62
2022-11-09T07:33:39.449Z,63.79
2022-11-09T07:36:09.354Z,58.21
2022-11-09T07:38:38.016Z,56.28
2022-11-09T07:41:06.903Z,57.17
2022-11-09T07:43:35.287Z,59.77
2022-11-09T07:46:06.125Z,60.44
2022-11-09T07:48:34.906Z,64.64
2022-11-09T07:51:03.477Z,65.28
2022-11-09T07:53:32.299Z,61.50
2022-11-09T07:56:02.842Z,55.46
2022-11-09T07:58:32.102Z,54.81
2022-11-09T08:01:00.791Z,55.13
2022-11-09T08:03:29.202Z,57.85
2022-11-09T08:05:58.195Z,58.80
2022-11-09T08:08:27.672Z,59.78
2022-11-09T08:10:57.993Z,63.25
2022-11-09T08:13:26.475Z,64.79
2022-11-09T08:15:55.054Z,58.30
2022-11-09T08:18:23.915Z,55.86
2022-11-09T08:20:52.623Z,56.77
2022-11-09T08:23:22.699Z,57.14
2022-11-09T08:25:51.638Z,59.46
2022-11-09T08:28:20.419Z,60.07
2022-11-09T08:30:58.253Z,63.40
2022-11-09T08:33:29.902Z,62.89
2022-11-09T08:36:00.702Z,58.24
2022-11-09T08:38:29.266Z,55.36
2022-11-09T08:41:00.469Z,56.06
2022-11-09T08:43:29.130Z,57.47
2022-11-09T08:45:57.714Z,58.31
2022-11-09T08:48:26.032Z,59.37
2022-11-09T08:50:56.551Z,60.08
2022-11-09T08:53:27.388Z,64.30
2022-11-09T08:55:55.935Z,65.71
2022-11-09T08:58:24.721Z,59.74
2022-11-09T09:00:53.256Z,56.02
2022-11-09T09:03:21.855Z,56.27
2022-11-09T09:05:50.470Z,56.84
2022-11-09T09:08:22.062Z,57.66
2022-11-09T09:10:50.983Z,58.28
2022-11-09T09:13:22.835Z,59.20
2022-11-09T09:15:51.547Z,59.72
2022-11-09T09:18:20.617Z,60.34
2022-11-09T09:20:49.650Z,64.44
2022-11-09T09:23:18.265Z,65.97
2022-11-09T09:25:46.634Z,60.22
2022-11-09T09:28:15.310Z,55.56
2022-11-09T09:30:43.850Z,55.22
2022-11-09T09:33:13.178Z,56.03
2022-11-09T09:35:41.882Z,56.63
2022-11-09T09:38:11.616Z,57.39
2022-11-09T09:40:55.253Z,57.92
2022-11-09T09:43:44.984Z,58.32
2022-11-09T09:46:49.034Z,58.84
2022-11-09T09:49:25.986Z,58.94
2022-11-09T09:52:01.654Z,60.05
2022-11-09T09:54:42.798Z,60.60
2022-11-09T09:57:20.851Z,65.06
2022-11-09T09:59:56.721Z,65.02
2022-11-09T10:02:31.010Z,59.13
2022-11-09T10:05:06.993Z,55.62
2022-11-09T10:07:41.802Z,55.38
2022-11-09T10:10:21.348Z,56.49
2022-11-09T10:13:22.255Z,57.59
2022-11-09T10:15:54.275Z,58.05
2022-11-09T10:18:50.986Z,59.14
2022-11-09T10:21:46.063Z,60.05
2022-11-09T10:25:18.668Z,59.75
2022-11-09T10:27:50.007Z,59.90
2022-11-09T10:30:20.741Z,60.84
2022-11-09T10:32:54.387Z,63.92
2022-11-09T10:35:38.172Z,64.67
2022-11-09T10:38:13.846Z,60.18
2022-11-09T10:40:54.026Z,57.72
2022-11-09T10:43:41.809Z,57.66
2022-11-09T10:46:29.198Z,58.23
2022-11-09T10:49:21.830Z,59.29
2022-11-09T10:52:47.242Z,59.71
2022-11-09T10:55:37.083Z,59.71
2022-11-09T10:58:30.750Z,61.45
2022-11-09T11:01:23.207Z,65.31
2022-11-09T11:04:28.636Z,66.20
2022-11-09T11:07:21.805Z,64.89
2022-11-09T11:10:18.167Z,57.15
2022-11-09T11:13:05.347Z,54.37
2022-11-09T11:15:52.800Z,55.01
2022-11-09T11:18:46.500Z,55.86
2022-11-09T11:21:34.005Z,56.61
2022-11-09T11:24:21.630Z,57.70
2022-11-09T11:27:21.859Z,59.32
2022-11-09T11:30:28.769Z,59.09
2022-11-09T11:33:19.549Z,60.37
2022-11-09T11:36:28.414Z,63.65
2022-11-09T11:40:05.639Z,66.36
2022-11-09T11:43:17.429Z,58.37
2022-11-09T11:46:21.897Z,56.63
2022-11-09T11:49:23.717Z,56.48
2022-11-09T11:52:20.804Z,57.39
2022-11-09T11:55:08.203Z,58.28
2022-11-09T11:58:23.556Z,59.67
2022-11-09T12:01:45.339Z,59.77
2022-11-09T12:04:55.838Z,64.75
2022-11-09T12:07:57.569Z,66.04
2022-11-09T12:10:50.401Z,60.36
2022-11-09T12:13:59.212Z,57.29
2022-11-09T12:17:01.499Z,57.07
2022-11-09T12:19:52.846Z,57.90
2022-11-09T12:23:07.486Z,59.13
2022-11-09T12:26:17.936Z,59.66
2022-11-09T12:29:20.145Z,61.51
2022-11-09T12:32:21.902Z,64.25
2022-11-09T12:35:08.888Z,64.20
2022-11-09T12:38:05.511Z,59.95
2022-11-09T12:40:58.837Z,56.92
2022-11-09T12:43:55.099Z,58.39
2022-11-09T12:46:48.747Z,59.40
2022-11-09T12:49:40.907Z,60.97
2022-11-09T12:52:30.035Z,63.99
2022-11-09T12:55:21.472Z,62.73
2022-11-09T12:58:23.573Z,62.21
2022-11-09T13:01:14.401Z,58.15
2022-11-09T13:04:03.909Z,56.55
2022-11-09T13:07:03.663Z,57.73
2022-11-09T13:09:56.255Z,59.36
2022-11-09T13:12:43.752Z,63.17
2022-11-09T13:15:34.358Z,66.54
2022-11-09T13:18:35.029Z,60.77
2022-11-09T13:21:22.964Z,56.61
2022-11-09T13:24:32.624Z,56.49
2022-11-09T13:27:36.713Z,57.35
2022-11-09T13:30:28.434Z,59.12
2022-11-09T13:33:15.517Z,63.61
2022-11-09T13:36:08.259Z,66.97
2022-11-09T13:39:28.363Z,64.44
2022-11-09T13:42:27.003Z,62.18
2022-11-09T13:45:27.240Z,57.59
2022-11-09T13:48:39.015Z,55.86
2022-11-09T13:51:35.405Z,56.95
2022-11-09T13:54:31.461Z,59.29
2022-11-09T13:57:18.883Z,63.34
2022-11-09T14:00:14.459Z,64.58
2022-11-09T14:03:24.431Z,63.05
2022-11-09T14:06:13.476Z,58.61
2022-11-09T14:09:01.958Z,56.83
2022-11-09T14:12:19.948Z,58.24
2022-11-09T14:15:28.921Z,58.55
2022-11-09T14:18:53.180Z,64.12
2022-11-09T14:21:45.733Z,65.52
2022-11-09T14:24:33.772Z,62.54
2022-11-09T14:27:22.398Z,58.91
2022-11-09T14:30:24.708Z,57.06
2022-11-09T14:33:24.547Z,58.23
2022-11-09T14:36:13.810Z,60.37
2022-11-09T14:39:05.123Z,64.18
2022-11-09T14:41:52.600Z,66.07
2022-11-09T14:44:44.471Z,63.93
2022-11-09T14:47:34.567Z,62.42
2022-11-09T14:50:31.504Z,58.58
2022-11-09T14:53:22.662Z,57.06
2022-11-09T14:56:17.497Z,58.51
2022-11-09T14:59:15.289Z,59.66
2022-11-09T15:02:09.271Z,64.70
2022-11-09T15:05:06.782Z,64.33
2022-11-09T15:07:54.666Z,62.83
2022-11-09T15:10:41.987Z,61.44
2022-11-09T15:13:38.012Z,58.30
2022-11-09T15:16:29.607Z,56.97
2022-11-09T15:19:30.474Z,58.29
2022-11-09T15:22:56.379Z,59.12
2022-11-09T15:25:43.680Z,65.47
2022-11-09T15:28:32.264Z,65.97
2022-11-09T15:31:22.693Z,63.35
2022-11-09T15:34:26.149Z,58.52
2022-11-09T15:37:22.871Z,57.54
2022-11-09T15:40:16.256Z,58.62
2022-11-09T15:43:03.137Z,63.04
2022-11-09T15:45:50.291Z,63.98
2022-11-09T15:48:40.031Z,62.00
2022-11-09T15:51:30.870Z,59.16
2022-11-09T15:54:18.912Z,57.65
2022-11-09T15:57:06.333Z,58.90
2022-11-09T15:59:53.176Z,62.74
2022-11-09T16:02:40.768Z,65.28
2022-11-09T16:05:28.347Z,63.28
2022-11-09T16:08:15.375Z,61.67
2022-11-09T16:11:07.909Z,58.32
2022-11-09T16:13:55.110Z,56.81
2022-11-09T16:16:42.404Z,57.62
2022-11-09T16:19:29.891Z,60.48
2022-11-09T16:22:17.436Z,64.96
2022-11-09T16:25:04.545Z,66.51
2022-11-09T16:27:52.515Z,63.29
2022-11-09T16:30:44.150Z,61.65
2022-11-09T16:33:34.551Z,58.53
2022-11-09T16:36:25.024Z,57.54
2022-11-09T16:39:17.171Z,59.36
2022-11-09T16:42:10.520Z,64.28
2022-11-09T16:45:04.000Z,65.41
2022-11-09T16:47:54.101Z,63.26
2022-11-09T16:50:41.227Z,61.46
2022-11-09T16:53:29.185Z,57.88
2022-11-09T16:56:17.162Z,57.03
2022-11-09T16:59:04.343Z,57.82
2022-11-09T17:01:56.793Z,59.81
2022-11-09T17:04:43.954Z,65.61
2022-11-09T17:07:32.096Z,66.49
2022-11-09T17:10:20.973Z,64.33
2022-11-09T17:13:09.533Z,61.19
2022-11-09T17:15:57.085Z,57.28
2022-11-09T17:18:44.254Z,56.99
2022-11-09T17:21:31.750Z,58.80
2022-11-09T17:24:18.897Z,64.15
2022-11-09T17:27:09.532Z,64.74
2022-11-09T17:29:56.847Z,62.92
2022-11-09T17:32:46.222Z,58.49
2022-11-09T17:35:36.858Z,56.67
2022-11-09T17:38:24.526Z,58.86
2022-11-09T17:41:14.657Z,64.24
2022-11-09T17:44:02.159Z,63.15
2022-11-09T17:46:49.674Z,61.20
2022-11-09T17:49:37.132Z,58.12
2022-11-09T17:52:24.306Z,57.32
2022-11-09T17:55:11.990Z,59.44
2022-11-09T17:57:59.336Z,65.46
2022-11-09T18:00:47.044Z,64.07
2022-11-09T18:03:37.432Z,61.44
2022-11-09T18:06:25.119Z,57.91
2022-11-09T18:09:40.797Z,58.07
2022-11-09T18:12:20.024Z,59.73
2022-11-09T18:15:07.573Z,65.43
2022-11-09T18:17:55.312Z,65.86
2022-11-09T18:20:42.640Z,63.91
2022-11-09T18:23:30.069Z,61.96
2022-11-09T18:26:17.212Z,58.01
2022-11-09T18:29:04.723Z,57.54
2022-11-09T18:31:52.136Z,60.15
2022-11-09T18:34:40.405Z,65.38
2022-11-09T18:37:27.945Z,64.22
2022-11-09T18:40:16.709Z,60.88
2022-11-09T18:43:04.220Z,57.52
2022-11-09T18:46:00.537Z,57.09
2022-11-09T18:48:54.710Z,60.10
2022-11-09T18:51:43.080Z,64.74
2022-11-09T18:54:31.826Z,64.86
2022-11-09T18:57:20.179Z,62.41
2022-11-09T19:00:08.368Z,57.72
2022-11-09T19:02:56.370Z,56.85
2022-11-09T19:05:46.469Z,59.12
2022-11-09T19:08:52.980Z,65.62
2022-11-09T19:11:39.911Z,65.38
2022-11-09T19:14:28.978Z,61.25
2022-11-09T19:17:16.742Z,57.98
2022-11-09T19:20:05.120Z,57.77
2022-11-09T19:22:52.457Z,59.49
2022-11-09T19:25:40.216Z,64.64
2022-11-09T19:28:28.002Z,64.37
2022-11-09T19:31:17.771Z,62.81
2022-11-09T19:34:04.968Z,60.79
2022-11-09T19:36:52.883Z,57.40
2022-11-09T19:39:43.276Z,57.13
2022-11-09T19:42:31.131Z,59.69
2022-11-09T19:45:18.236Z,63.80
2022-11-09T19:48:08.757Z,64.33
2022-11-09T19:50:56.244Z,61.74
2022-11-09T19:53:59.146Z,58.34
2022-11-09T19:56:46.671Z,57.05
2022-11-09T19:59:34.127Z,57.41
2022-11-09T20:02:21.440Z,64.39
2022-11-09T20:05:12.135Z,64.77
2022-11-09T20:07:59.124Z,61.16
2022-11-09T20:10:47.927Z,58.07
2022-11-09T20:13:38.524Z,57.87
2022-11-09T20:16:26.739Z,59.45
2022-11-09T20:19:14.789Z,64.30
2022-11-09T20:22:02.195Z,65.09
2022-11-09T20:24:49.927Z,62.74
2022-11-09T20:27:37.450Z,58.86
2022-11-09T20:30:24.347Z,57.45
2022-11-09T20:33:12.020Z,59.19
2022-11-09T20:35:59.225Z,64.54
2022-11-09T20:38:47.367Z,65.03
2022-11-09T20:41:36.007Z,62.47
2022-11-09T20:44:23.456Z,58.02
2022-11-09T20:47:10.307Z,56.54
2022-11-09T20:49:57.583Z,57.89
2022-11-09T20:52:44.504Z,64.21
2022-11-09T20:55:37.037Z,64.27
2022-11-09T20:58:24.857Z,60.81
2022-11-09T21:01:20.076Z,57.07
2022-11-09T21:04:07.318Z,56.83
2022-11-09T21:06:54.772Z,57.44
2022-11-09T21:09:41.952Z,63.58
2022-11-09T21:12:29.706Z,64.74
2022-11-09T21:15:16.764Z,62.86
2022-11-09T21:18:04.438Z,57.73
2022-11-09T21:20:51.319Z,57.06
2022-11-09T21:23:58.245Z,58.15
2022-11-09T21:27:03.583Z,65.16
2022-11-09T21:29:50.594Z,65.60
2022-11-09T21:32:38.062Z,62.42
2022-11-09T21:35:25.455Z,58.13
2022-11-09T21:38:12.843Z,57.46
2022-11-09T21:41:21.457Z,59.09
2022-11-09T21:44:10.595Z,64.71
2022-11-09T21:46:58.555Z,63.91
2022-11-09T21:49:45.877Z,61.18
2022-11-09T21:52:34.230Z,57.69
2022-11-09T21:55:22.356Z,57.37
2022-11-09T21:58:10.323Z,60.27
2022-11-09T22:01:18.102Z,64.73
2022-11-09T22:04:05.778Z,66.48
2022-11-09T22:06:53.090Z,62.62
2022-11-09T22:10:08.234Z,58.49
2022-11-09T22:13:14.007Z,57.20
2022-11-09T22:16:09.296Z,58.30
2022-11-09T22:19:15.982Z,65.15
2022-11-09T22:22:03.406Z,66.16
2022-11-09T22:24:50.926Z,63.31
2022-11-09T22:27:37.906Z,61.27
2022-11-09T22:30:25.534Z,57.31
2022-11-09T22:33:12.539Z,56.11
2022-11-09T22:36:03.722Z,57.55
2022-11-09T22:38:51.141Z,64.13
2022-11-09T22:41:39.977Z,64.15
2022-11-09T22:44:27.240Z,61.51
2022-11-09T22:47:14.923Z,57.78
2022-11-09T22:50:02.323Z,56.65
2022-11-09T22:52:53.955Z,59.35
2022-11-09T22:55:41.500Z,64.91
2022-11-09T22:58:29.579Z,64.77
2022-11-09T23:01:19.122Z,61.90
2022-11-09T23:04:06.445Z,57.86
2022-11-09T23:06:53.583Z,57.94
2022-11-09T23:09:41.588Z,60.15
2022-11-09T23:12:29.141Z,64.87
2022-11-09T23:15:17.053Z,65.66
2022-11-09T23:18:23.348Z,62.70
2022-11-09T23:21:11.139Z,58.36
2022-11-09T23:24:03.899Z,57.80
2022-11-09T23:26:51.043Z,59.37
2022-11-09T23:29:38.389Z,65.87
2022-11-09T23:32:25.853Z,66.15
2022-11-09T23:35:12.808Z,62.40
2022-11-09T23:38:01.038Z,58.22
2022-11-09T23:40:48.483Z,57.95
2022-11-09T23:43:37.084Z,59.58
2022-11-09T23:46:23.755Z,65.24
2022-11-09T23:49:10.623Z,65.04
2022-11-09T23:51:57.435Z,61.36
2022-11-09T23:54:45.867Z,57.69
2022-11-09T23:57:32.856Z,57.63
